Terminal Aerodrome Forecast
Issued by NWS

Home | Current Version | Previous Version | Graphics & Text | Print | Product List | Glossary On
Versions: 1 2 3 4 5 6 7 8 9 10 11 12 13 14 15
000
FTUS42 KMHX 280741 AAA
TAFPGV
TAF AMD
KPGV 280741Z 2808/2906 24008KT P6SM SCT007 BKN120
      TEMPO 2808/2811 BKN008
     FM281100 27010KT P6SM SCT040
     FM282300 25003KT P6SM SKC
      AMD LTD TO CLD VIS AND WIND=

USA.gov is the U.S. government's official web portal to all federal, state and local government web resources and services.